createdAt,value
2022-08-09T09:26:46.707Z,102106.09
2022-08-09T09:32:03.271Z,102186.50
2022-08-09T09:36:22.033Z,102113.81
2022-08-09T09:41:25.916Z,102180.59
2022-08-09T09:51:18.740Z,102138.69
2022-08-09T09:55:48.839Z,102180.94
2022-08-09T10:10:18.621Z,102180.97
2022-08-09T10:15:50.760Z,102164.78
2022-08-09T10:20:15.243Z,102088.56
2022-08-09T10:24:54.370Z,102160.91
2022-08-09T10:30:43.909Z,102114.47
2022-08-09T10:35:30.788Z,102172.72
2022-08-09T10:40:34.984Z,102133.66
2022-08-09T10:45:18.165Z,102176.97
2022-08-09T10:49:54.553Z,102169.25
2022-08-09T11:09:50.918Z,102096.81
2022-08-09T11:13:53.755Z,102152.78
2022-08-09T11:19:09.282Z,102108.50
2022-08-09T11:23:23.890Z,102161.75
2022-08-09T11:28:08.126Z,102161.13
2022-08-09T11:33:21.266Z,102155.72
2022-08-09T11:37:41.057Z,102133.59
2022-08-09T11:41:49.682Z,102143.56
2022-08-09T11:46:03.006Z,102141.91
2022-08-09T11:50:55.103Z,102127.47
2022-08-09T11:54:42.160Z,102125.66
2022-08-09T11:59:12.914Z,102101.38
2022-08-09T12:03:55.540Z,102111.09
2022-08-09T12:12:28.701Z,102130.47
2022-08-09T12:16:42.931Z,102128.44
2022-08-09T12:20:46.490Z,102125.63
2022-08-09T12:24:51.670Z,102077.78
2022-08-09T12:29:12.643Z,102111.69
2022-08-09T12:33:50.858Z,102119.97
2022-08-09T12:37:55.686Z,102110.28
2022-08-09T12:42:17.125Z,102023.41
2022-08-09T12:46:20.812Z,102063.44
2022-08-09T12:50:25.131Z,102093.47
2022-08-09T12:54:28.135Z,102081.09
2022-08-09T12:58:34.741Z,102042.56
2022-08-09T13:03:09.955Z,102015.22
2022-08-09T13:07:28.461Z,102070.59
2022-08-09T13:12:02.129Z,102064.13
2022-08-09T13:16:08.424Z,102084.84
2022-08-09T13:20:16.312Z,102073.09
2022-08-09T13:24:53.650Z,102055.34
2022-08-09T13:29:07.997Z,102030.75
2022-08-09T13:33:17.333Z,102007.56
2022-08-09T13:37:24.769Z,102038.34
2022-08-09T13:42:00.471Z,102046.94
2022-08-09T13:47:16.477Z,102052.84
2022-08-09T13:50:31.798Z,102029.38
2022-08-09T13:54:34.498Z,101982.34
2022-08-09T13:58:37.287Z,102056.28
2022-08-09T14:03:02.789Z,102021.91
2022-08-09T14:07:06.524Z,102027.34
2022-08-09T14:11:16.093Z,102058.34
2022-08-09T14:16:10.574Z,101997.69
2022-08-09T14:19:43.257Z,102049.44
2022-08-09T14:23:55.389Z,102041.28
2022-08-09T14:27:59.100Z,102042.63
2022-08-09T14:32:10.829Z,102045.38
2022-08-09T14:36:19.817Z,102028.56
2022-08-09T14:41:01.443Z,102036.75
2022-08-09T14:44:59.412Z,102029.00
2022-08-09T14:49:03.443Z,101972.34
2022-08-09T14:53:11.664Z,102032.94
2022-08-09T14:57:14.851Z,101978.19
2022-08-09T15:01:20.625Z,101987.97
2022-08-09T15:05:22.704Z,102020.47
2022-08-09T15:10:03.388Z,102018.69
2022-08-09T15:14:04.118Z,102015.97
2022-08-09T15:18:14.360Z,102027.41
2022-08-09T15:22:17.484Z,102020.00
2022-08-09T15:26:31.155Z,102023.84
2022-08-09T15:30:59.159Z,101989.59
2022-08-09T15:35:02.123Z,102022.94
2022-08-09T15:39:21.950Z,101974.00
2022-08-09T15:43:24.815Z,101971.69
2022-08-09T15:47:51.453Z,101970.63
2022-08-09T15:52:02.829Z,101946.06
2022-08-09T15:56:26.998Z,101951.22
2022-08-09T16:00:32.112Z,101997.13
2022-08-09T16:04:34.862Z,101955.63
2022-08-09T16:08:44.398Z,101967.72
2022-08-09T16:12:53.530Z,101988.13
2022-08-09T16:17:00.243Z,101909.00
2022-08-09T16:21:02.623Z,101955.63
2022-08-09T16:25:12.900Z,101971.84
2022-08-09T16:29:22.339Z,101984.47
2022-08-09T16:33:46.324Z,101977.28
2022-08-09T16:37:55.045Z,101930.47
2022-08-09T16:42:05.063Z,101942.63
2022-08-09T16:46:08.003Z,101965.81
2022-08-09T16:50:31.927Z,101916.25
2022-08-09T16:54:41.479Z,101994.38
2022-08-09T16:58:50.452Z,101985.88
2022-08-09T17:02:52.899Z,101987.03
2022-08-09T17:08:41.092Z,101983.81
2022-08-09T17:11:24.629Z,101996.53
2022-08-09T17:15:58.887Z,101977.34
2022-08-09T17:20:30.241Z,101990.41
2022-08-09T17:24:30.205Z,101971.63
2022-08-09T17:28:38.722Z,101961.44
2022-08-09T17:32:45.515Z,101975.44
2022-08-09T17:36:53.627Z,101946.53
2022-08-09T17:40:56.002Z,101995.28
2022-08-09T17:44:59.501Z,101945.47
2022-08-09T17:49:03.741Z,101968.66
2022-08-09T17:53:19.307Z,102003.31
2022-08-09T17:58:03.103Z,102011.47
2022-08-09T18:02:06.573Z,102022.75
2022-08-09T18:06:14.832Z,102018.34
2022-08-09T18:10:34.088Z,102026.34
2022-08-09T18:14:49.749Z,102022.38
2022-08-09T18:19:03.784Z,101999.22
2022-08-09T18:24:12.845Z,102031.13
2022-08-09T18:30:34.948Z,101991.91
2022-08-09T18:32:42.239Z,101966.47
2022-08-09T18:36:53.180Z,102012.72
2022-08-09T18:40:55.898Z,102019.81
2022-08-09T18:45:02.987Z,102021.66
2022-08-09T18:49:14.388Z,101984.66
2022-08-09T18:53:16.776Z,102034.75
2022-08-09T18:57:19.136Z,102041.00
2022-08-09T19:01:21.655Z,102065.75
2022-08-09T19:06:01.886Z,102063.25
2022-08-09T19:10:14.044Z,102043.13
2022-08-09T19:14:16.104Z,102001.31
2022-08-09T19:18:42.286Z,102055.50
2022-08-09T19:22:50.325Z,102083.94
2022-08-09T19:26:56.633Z,102088.25
2022-08-09T19:31:00.952Z,102084.59
2022-08-09T19:35:03.441Z,102083.16
2022-08-09T19:39:05.837Z,102098.97
2022-08-09T19:43:10.352Z,102097.72
2022-08-09T19:47:45.596Z,102093.81
2022-08-09T19:51:55.205Z,102095.56
2022-08-09T19:56:05.851Z,102071.94
2022-08-09T20:00:10.115Z,102058.38
2022-08-09T20:04:22.091Z,102045.09
2022-08-09T20:08:35.308Z,102084.06
2022-08-09T20:12:45.995Z,102073.88
2022-08-09T20:16:54.296Z,102029.84
2022-08-09T20:20:58.217Z,102100.59
2022-08-09T20:25:00.815Z,102105.63
2022-08-09T20:29:10.283Z,102081.63
2022-08-09T20:33:21.322Z,102034.19
2022-08-09T20:37:23.263Z,102101.56
2022-08-09T20:41:34.813Z,102082.03
2022-08-09T20:45:59.103Z,102095.06
2022-08-09T20:50:08.984Z,102099.88
2022-08-09T20:54:18.438Z,102067.84
2022-08-09T20:58:21.236Z,102051.31
2022-08-09T21:02:24.691Z,102019.69
2022-08-09T21:06:27.079Z,102096.78
2022-08-09T21:10:33.766Z,102062.28
2022-08-09T21:14:41.645Z,102076.88
2022-08-09T21:20:04.271Z,102070.38
2022-08-09T21:23:10.847Z,102075.16
2022-08-09T21:27:51.743Z,102076.34
2022-08-09T21:31:48.054Z,102072.81
2022-08-09T21:35:52.933Z,102095.97
2022-08-09T21:39:57.534Z,102096.59
2022-08-09T21:44:00.650Z,102097.91
2022-08-09T21:48:02.813Z,102045.03
2022-08-09T21:52:17.840Z,102040.69
2022-08-09T21:56:34.036Z,102058.81
2022-08-09T22:00:48.791Z,102122.25
2022-08-09T22:04:57.978Z,102126.00
2022-08-09T22:09:12.671Z,102092.81
2022-08-09T22:13:20.267Z,102037.09
2022-08-09T22:17:31.903Z,102118.00
2022-08-09T22:21:45.205Z,102120.84
2022-08-09T22:26:08.690Z,102120.56
2022-08-09T22:30:15.177Z,102126.78
2022-08-09T22:34:29.344Z,102124.09
2022-08-09T22:38:39.180Z,102114.69
2022-08-09T22:42:46.478Z,102033.53
2022-08-09T22:48:13.939Z,102050.16
2022-08-09T22:51:17.882Z,102139.75
2022-08-09T22:56:06.553Z,102043.28
2022-08-09T22:59:58.224Z,102098.94
2022-08-09T23:04:07.377Z,102116.94
2022-08-09T23:08:33.249Z,102093.97
2022-08-09T23:12:42.816Z,102082.72
2022-08-09T23:16:48.150Z,102102.66
2022-08-09T23:20:51.050Z,102120.84
2022-08-09T23:24:53.425Z,102096.53
2022-08-09T23:28:55.601Z,102131.94
2022-08-09T23:32:59.922Z,102113.13
2022-08-09T23:37:03.154Z,102052.03
2022-08-09T23:41:09.217Z,102129.59
2022-08-09T23:45:36.877Z,102045.69
2022-08-09T23:49:42.602Z,102110.63
2022-08-09T23:53:50.629Z,102054.38
2022-08-09T23:58:10.407Z,102104.09
